Time,TemperatureF,DewpointF,PressureIn,WindDirection,WindDirectionDegrees,WindSpeedMPH,WindSpeedGustMPH,Humidity,HourlyPrecipIn,Conditions,Clouds,dailyrainin,SoftwareType,DateUTC
2015-07-01 00:03:00,69.9,60.5,30.06,ESE,112,0.0,0.0,72,0.00,,---,0.00,VWS V14.01,2015-07-01 05:03:00,
2015-07-01 00:08:00,69.9,60.5,30.06,ESE,112,0.0,0.0,72,0.00,,---,0.00,VWS V14.01,2015-07-01 05:08:00,
2015-07-01 00:13:00,69.7,60.3,30.06,ESE,112,0.0,0.0,72,0.00,,---,0.00,VWS V14.01,2015-07-01 05:13:00,
2015-07-01 00:18:00,69.7,60.7,30.06,SSE,158,0.0,0.0,73,0.00,,---,0.00,VWS V14.01,2015-07-01 05:18:00,
2015-07-01 00:23:00,69.7,60.7,30.03,SSE,158,0.0,0.0,73,0.00,,---,0.00,VWS V14.01,2015-07-01 05:23:00,
2015-07-01 00:28:00,69.7,60.7,30.03,SSE,158,0.0,0.0,73,0.00,,---,0.00,VWS V14.01,2015-07-01 05:28:00,
2015-07-01 00:33:00,69.7,60.7,30.03,SSE,158,0.0,0.0,73,0.00,,---,0.00,VWS V14.01,2015-07-01 05:33:00,
2015-07-01 00:38:00,69.7,61.1,30.03,SSE,158,0.0,0.0,74,0.00,,---,0.00,VWS V14.01,2015-07-01 05:38:00,
2015-07-01 00:43:00,69.7,61.1,30.03,SSE,158,0.0,0.0,74,0.00,,---,0.00,VWS V14.01,2015-07-01 05:43:00,
2015-07-01 00:48:00,69.7,60.7,30.03,SSE,158,0.0,0.0,73,0.00,,---,0.00,VWS V14.01,2015-07-01 05:48:00,
2015-07-01 00:53:00,69.5,60.5,30.03,SSE,158,0.0,0.0,73,0.00,,---,0.00,VWS V14.01,2015-07-01 05:53:00,
2015-07-01 00:58:00,69.5,60.5,30.03,SSE,158,0.0,0.0,73,0.00,,---,0.00,VWS V14.01,2015-07-01 05:58:00,
2015-07-01 01:03:00,69.4,60.0,30.03,SSE,158,0.0,0.0,72,0.00,,---,0.00,VWS V14.01,2015-07-01 06:03:00,
2015-07-01 01:08:00,69.2,59.8,30.03,SSE,158,0.0,0.0,72,0.00,,---,0.00,VWS V14.01,2015-07-01 06:08:00,
2015-07-01 01:13:00,69.2,59.8,30.03,SSE,158,0.0,0.0,72,0.00,,---,0.00,VWS V14.01,2015-07-01 06:13:00,
2015-07-01 01:18:00,69.2,60.2,30.03,SSE,158,0.0,0.0,73,0.00,,---,0.00,VWS V14.01,2015-07-01 06:18:00,
2015-07-01 01:23:00,69.2,60.2,30.03,SSE,158,0.0,0.0,73,0.00,,---,0.00,VWS V14.01,2015-07-01 06:23:00,
2015-07-01 01:28:00,69.0,59.6,30.03,SSE,158,0.0,0.0,72,0.00,,---,0.00,VWS V14.01,2015-07-01 06:28:00,
2015-07-01 01:33:00,69.0,59.6,30.03,SSE,158,0.0,0.0,72,0.00,,---,0.00,VWS V14.01,2015-07-01 06:33:00,
2015-07-01 01:38:00,69.0,59.6,30.03,SSE,158,0.0,0.0,72,0.00,,---,0.00,VWS V14.01,2015-07-01 06:38:00,
2015-07-01 01:43:00,68.8,59.8,30.03,SSE,158,0.0,0.0,73,0.00,,---,0.00,VWS V14.01,2015-07-01 06:43:00,
2015-07-01 01:48:00,68.8,59.8,30.03,SSE,158,0.0,0.0,73,0.00,,---,0.00,VWS V14.01,2015-07-01 06:48:00,
2015-07-01 01:53:00,68.8,59.8,30.03,SSE,158,0.0,0.0,73,0.00,,---,0.00,VWS V14.01,2015-07-01 06:53:00,
2015-07-01 01:58:00,68.6,59.7,30.03,SSE,158,0.0,0.0,73,0.00,,---,0.00,VWS V14.01,2015-07-01 06:58:00,
2015-07-01 02:03:00,68.6,59.7,30.03,SSE,158,0.0,0.0,73,0.00,,---,0.00,VWS V14.01,2015-07-01 07:03:00,
2015-07-01 02:08:00,68.6,59.7,30.03,SSE,158,0.0,0.0,73,0.00,,---,0.00,VWS V14.01,2015-07-01 07:08:00,
2015-07-01 02:13:00,68.6,60.0,30.03,SSE,158,0.0,0.0,74,0.00,,---,0.00,VWS V14.01,2015-07-01 07:13:00,
2015-07-01 02:18:00,68.5,59.9,30.03,SSE,158,0.0,0.0,74,0.00,,---,0.00,VWS V14.01,2015-07-01 07:18:00,
2015-07-01 02:23:00,68.5,59.5,30.03,SSE,158,0.0,0.0,73,0.00,,---,0.00,VWS V14.01,2015-07-01 07:23:00,
2015-07-01 02:28:00,68.5,59.9,30.03,SSE,158,0.0,0.0,74,0.00,,---,0.00,VWS V14.01,2015-07-01 07:28:00,
2015-07-01 02:33:00,68.5,59.9,30.03,SSE,158,0.0,0.0,74,0.00,,---,0.00,VWS V14.01,2015-07-01 07:33:00,
2015-07-01 02:38:00,68.5,59.9,30.03,SSE,158,0.0,0.0,74,0.00,,---,0.00,VWS V14.01,2015-07-01 07:38:00,
2015-07-01 02:43:00,68.3,60.1,30.03,SSE,158,0.0,0.0,75,0.00,,---,0.00,VWS V14.01,2015-07-01 07:43:00,
2015-07-01 02:48:00,68.3,59.7,30.03,SSE,158,0.0,0.0,74,0.00,,---,0.00,VWS V14.01,2015-07-01 07:48:00,
2015-07-01 02:53:00,68.3,60.1,30.03,SSE,158,0.0,0.0,75,0.00,,---,0.00,VWS V14.01,2015-07-01 07:53:00,
2015-07-01 02:58:00,68.3,60.1,30.03,SSE,158,0.0,0.0,75,0.00,,---,0.00,VWS V14.01,2015-07-01 07:58:00,
2015-07-01 03:03:00,68.3,59.7,30.03,SSE,158,0.0,0.0,74,0.00,,---,0.00,VWS V14.01,2015-07-01 08:03:00,
2015-07-01 03:08:00,68.1,59.1,30.03,SSE,158,0.0,0.0,73,0.00,,---,0.00,VWS V14.01,2015-07-01 08:08:00,
2015-07-01 03:13:00,67.9,59.0,30.03,SSE,158,0.0,0.0,73,0.00,,---,0.00,VWS V14.01,2015-07-01 08:13:00,
2015-07-01 03:18:00,67.9,59.3,30.03,SSE,158,0.0,0.0,74,0.00,,---,0.00,VWS V14.01,2015-07-01 08:18:00,
2015-07-01 03:23:00,68.1,59.9,30.00,SSE,158,0.0,0.0,75,0.00,,---,0.00,VWS V14.01,2015-07-01 08:23:00,
2015-07-01 03:28:00,68.1,59.9,30.00,SSE,158,0.0,0.0,75,0.00,,---,0.00,VWS V14.01,2015-07-01 08:28:00,
2015-07-01 03:33:00,68.1,59.9,30.00,SSE,158,0.0,0.0,75,0.00,,---,0.00,VWS V14.01,2015-07-01 08:33:00,
2015-07-01 03:38:00,68.1,59.9,30.00,SSE,158,0.0,0.0,75,0.00,,---,0.00,VWS V14.01,2015-07-01 08:38:00,
2015-07-01 03:43:00,68.1,59.9,30.00,SSE,158,0.0,0.0,75,0.00,,---,0.00,VWS V14.01,2015-07-01 08:43:00,
2015-07-01 03:48:00,68.1,59.9,30.00,SSE,158,0.0,0.0,75,0.00,,---,0.00,VWS V14.01,2015-07-01 08:48:00,
2015-07-01 03:53:00,68.1,60.3,30.00,SSE,158,0.0,0.0,76,0.00,,---,0.00,VWS V14.01,2015-07-01 08:53:00,
2015-07-01 03:58:00,68.1,60.3,30.00,SSE,158,0.0,0.0,76,0.00,,---,0.00,VWS V14.01,2015-07-01 08:58:00,
2015-07-01 04:03:00,68.1,60.6,30.00,SSE,158,0.0,0.0,77,0.00,,---,0.00,VWS V14.01,2015-07-01 09:03:00,
2015-07-01 04:08:00,68.1,60.6,30.00,SSE,158,0.0,0.0,77,0.00,,---,0.00,VWS V14.01,2015-07-01 09:08:00,
2015-07-01 04:13:00,68.1,60.6,30.00,SSE,158,0.0,0.0,77,0.00,,---,0.00,VWS V14.01,2015-07-01 09:13:00,
2015-07-01 04:18:00,68.1,60.3,30.00,SSE,158,0.0,0.0,76,0.00,,---,0.00,VWS V14.01,2015-07-01 09:18:00,
2015-07-01 04:22:00,67.9,59.7,30.00,SSE,158,0.0,0.0,75,0.00,,---,0.00,VWS V14.01,2015-07-01 09:22:00,
2015-07-01 04:27:00,67.9,59.7,30.00,SSE,158,0.0,0.0,75,0.00,,---,0.00,VWS V14.01,2015-07-01 09:27:00,
2015-07-01 04:32:00,67.9,59.7,30.00,SSE,158,0.0,0.0,75,0.00,,---,0.00,VWS V14.01,2015-07-01 09:32:00,
2015-07-01 04:37:00,67.9,60.1,30.00,SSE,158,0.0,0.0,76,0.00,,---,0.00,VWS V14.01,2015-07-01 09:37:00,
2015-07-01 04:42:00,67.9,60.1,30.00,SSE,158,0.0,0.0,76,0.00,,---,0.00,VWS V14.01,2015-07-01 09:42:00,
2015-07-01 04:47:00,67.9,60.1,30.00,SSE,158,0.0,0.0,76,0.00,,---,0.00,VWS V14.01,2015-07-01 09:47:00,
2015-07-01 04:52:00,67.9,60.5,30.00,SSE,158,0.0,0.0,77,0.00,,---,0.00,VWS V14.01,2015-07-01 09:52:00,
2015-07-01 04:57:00,67.9,60.5,30.00,SSE,158,0.0,0.0,77,0.00,,---,0.00,VWS V14.01,2015-07-01 09:57:00,
2015-07-01 05:02:00,67.9,60.8,30.00,SSE,158,0.0,0.0,78,0.00,,---,0.00,VWS V14.01,2015-07-01 10:02:00,
2015-07-01 05:07:00,68.1,61.0,30.00,SSE,158,0.0,0.0,78,0.00,,---,0.00,VWS V14.01,2015-07-01 10:07:00,
2015-07-01 05:12:00,68.1,61.0,30.00,SSE,158,0.0,0.0,78,0.00,,---,0.00,VWS V14.01,2015-07-01 10:12:00,
2015-07-01 05:17:00,68.3,61.5,30.00,SSE,158,0.0,0.0,79,0.00,,---,0.00,VWS V14.01,2015-07-01 10:17:00,
2015-07-01 05:22:00,68.3,61.5,30.00,SSE,158,0.0,0.0,79,0.00,,---,0.00,VWS V14.01,2015-07-01 10:22:00,
2015-07-01 05:27:00,68.5,61.7,30.00,SSE,158,0.0,0.0,79,0.00,,---,0.00,VWS V14.01,2015-07-01 10:27:00,
2015-07-01 05:32:00,68.6,62.2,30.00,SSE,158,0.0,0.0,80,0.00,,---,0.00,VWS V14.01,2015-07-01 10:32:00,
2015-07-01 05:37:00,68.6,62.2,30.00,SSE,158,0.0,0.0,80,0.00,,---,0.00,VWS V14.01,2015-07-01 10:37:00,
2015-07-01 05:42:00,68.8,62.4,30.00,SSE,158,0.0,0.0,80,0.00,,---,0.00,VWS V14.01,2015-07-01 10:42:00,
2015-07-01 05:47:00,68.8,62.4,30.00,South,180,0.0,0.0,80,0.00,,---,0.00,VWS V14.01,2015-07-01 10:47:00,
2015-07-01 05:52:00,69.0,62.6,30.03,South,180,0.0,0.0,80,0.00,,---,0.00,VWS V14.01,2015-07-01 10:52:00,
2015-07-01 05:57:00,69.2,62.8,30.03,SSW,202,0.0,0.0,80,0.00,,---,0.00,VWS V14.01,2015-07-01 10:57:00,
2015-07-01 06:02:00,69.2,62.8,30.03,SSW,202,0.0,0.0,80,0.00,,---,0.00,VWS V14.01,2015-07-01 11:02:00,
2015-07-01 06:07:00,69.2,62.8,30.03,SSW,202,0.0,0.0,80,0.00,,---,0.00,VWS V14.01,2015-07-01 11:07:00,
2015-07-01 06:12:00,69.2,62.8,30.03,SSW,202,0.0,0.0,80,0.00,,---,0.00,VWS V14.01,2015-07-01 11:12:00,
2015-07-01 06:17:00,69.4,62.9,30.03,SSW,202,0.0,0.0,80,0.00,,---,0.00,VWS V14.01,2015-07-01 11:17:00,
2015-07-01 06:22:00,69.4,62.6,30.03,SSW,202,0.0,0.0,79,0.00,,---,0.00,VWS V14.01,2015-07-01 11:22:00,
2015-07-01 06:27:00,69.4,62.6,30.03,SSW,202,0.0,0.0,79,0.00,,---,0.00,VWS V14.01,2015-07-01 11:27:00,
2015-07-01 06:32:00,69.4,62.6,30.03,SSW,202,0.0,0.0,79,0.00,,---,0.00,VWS V14.01,2015-07-01 11:32:00,
2015-07-01 06:37:00,69.4,62.9,30.03,SSE,158,0.0,0.0,80,0.00,,---,0.00,VWS V14.01,2015-07-01 11:37:00,
2015-07-01 06:42:00,69.5,63.1,30.03,SSE,158,0.0,0.0,80,0.00,,---,0.00,VWS V14.01,2015-07-01 11:42:00,
2015-07-01 06:47:00,69.5,63.1,30.03,SSE,158,0.0,0.0,80,0.00,,---,0.00,VWS V14.01,2015-07-01 11:47:00,
2015-07-01 06:52:00,69.5,63.1,30.03,SSE,158,0.0,0.0,80,0.00,,---,0.00,VWS V14.01,2015-07-01 11:52:00,
2015-07-01 06:57:00,69.5,63.1,30.03,SSE,158,0.0,0.0,80,0.00,,---,0.00,VWS V14.01,2015-07-01 11:57:00,
2015-07-01 07:02:00,69.7,63.3,30.03,SSE,158,0.0,0.0,80,0.00,,---,0.00,VWS V14.01,2015-07-01 12:02:00,
2015-07-01 07:07:00,69.7,63.3,30.03,SSW,202,0.0,0.0,80,0.00,,---,0.00,VWS V14.01,2015-07-01 12:07:00,
2015-07-01 07:12:00,69.9,63.5,30.06,SSW,202,0.0,0.0,80,0.00,,---,0.00,VWS V14.01,2015-07-01 12:12:00,
2015-07-01 07:17:00,70.1,63.6,30.06,SSW,202,0.0,0.0,80,0.00,,---,0.00,VWS V14.01,2015-07-01 12:17:00,
2015-07-01 07:22:00,70.1,63.6,30.06,SSE,158,0.0,0.0,80,0.00,,---,0.00,VWS V14.01,2015-07-01 12:22:00,
2015-07-01 07:27:00,70.3,64.2,30.03,SSE,158,0.0,0.0,81,0.00,,---,0.00,VWS V14.01,2015-07-01 12:27:00,
2015-07-01 07:32:00,70.4,64.3,30.03,SSE,158,0.0,0.0,81,0.00,,---,0.00,VWS V14.01,2015-07-01 12:32:00,
2015-07-01 07:37:00,70.6,64.5,30.06,SSE,158,0.0,0.0,81,0.00,,---,0.00,VWS V14.01,2015-07-01 12:37:00,
2015-07-01 07:42:00,70.6,64.5,30.06,South,180,0.0,0.0,81,0.00,,---,0.00,VWS V14.01,2015-07-01 12:42:00,
2015-07-01 07:47:00,71.0,64.9,30.06,SW,225,0.0,0.0,81,0.00,,---,0.00,VWS V14.01,2015-07-01 12:47:00,
2015-07-01 07:52:00,71.2,65.0,30.06,SSW,202,0.0,0.0,81,0.00,,---,0.00,VWS V14.01,2015-07-01 12:52:00,
2015-07-01 07:57:00,71.3,65.2,30.06,SSE,158,0.0,0.0,81,0.00,,---,0.00,VWS V14.01,2015-07-01 12:57:00,
2015-07-01 08:02:00,71.5,65.4,30.06,South,180,0.0,0.0,81,0.00,,---,0.00,VWS V14.01,2015-07-01 13:02:00,
2015-07-01 08:07:00,71.7,65.6,30.06,South,180,0.0,0.0,81,0.00,,---,0.00,VWS V14.01,2015-07-01 13:07:00,
2015-07-01 08:12:00,71.9,65.7,30.06,South,180,0.0,0.0,81,0.00,,---,0.00,VWS V14.01,2015-07-01 13:12:00,
2015-07-01 08:17:00,72.1,65.9,30.06,ENE,68,0.0,0.0,81,0.00,,---,0.00,VWS V14.01,2015-07-01 13:17:00,
2015-07-01 08:22:00,72.2,66.1,30.06,ENE,68,0.0,0.0,81,0.00,,---,0.00,VWS V14.01,2015-07-01 13:22:00,
2015-07-01 08:27:00,72.4,66.3,30.06,ENE,68,0.0,0.0,81,0.00,,---,0.00,VWS V14.01,2015-07-01 13:27:00,
2015-07-01 08:32:00,72.8,66.3,30.06,SSE,158,0.0,0.0,80,0.00,,---,0.00,VWS V14.01,2015-07-01 13:32:00,
2015-07-01 08:37:00,73.1,66.6,30.06,NNW,338,0.0,0.0,80,0.00,,---,0.00,VWS V14.01,2015-07-01 13:37:00,
2015-07-01 08:42:00,73.5,67.0,30.06,SSW,202,0.0,0.0,80,0.00,,---,0.00,VWS V14.01,2015-07-01 13:42:00,
2015-07-01 08:47:00,73.9,66.9,30.06,SSW,202,0.0,0.0,79,0.00,,---,0.00,VWS V14.01,2015-07-01 13:47:00,
2015-07-01 08:52:00,74.0,67.1,30.06,SW,225,0.0,0.0,79,0.00,,---,0.00,VWS V14.01,2015-07-01 13:52:00,
2015-07-01 08:57:00,74.4,66.7,30.06,SSE,158,1.1,4.0,77,0.00,,---,0.00,VWS V14.01,2015-07-01 13:57:00,
2015-07-01 09:02:00,74.9,66.1,30.06,SSW,202,0.0,0.0,74,0.00,,---,0.00,VWS V14.01,2015-07-01 14:02:00,
2015-07-01 09:07:00,75.5,66.2,30.06,SSW,202,0.0,0.0,73,0.00,,---,0.00,VWS V14.01,2015-07-01 14:07:00,
2015-07-01 09:12:00,76.0,65.9,30.06,SSW,202,0.0,0.0,71,0.00,,---,0.00,VWS V14.01,2015-07-01 14:12:00,
2015-07-01 09:17:00,76.6,66.1,30.06,SSE,158,0.0,0.0,70,0.00,,---,0.00,VWS V14.01,2015-07-01 14:17:00,
2015-07-01 09:22:00,77.3,65.5,30.06,SSE,158,0.0,0.0,67,0.00,,---,0.00,VWS V14.01,2015-07-01 14:22:00,
2015-07-01 09:27:00,78.0,63.5,30.06,WNW,292,0.0,0.0,61,0.00,,---,0.00,VWS V14.01,2015-07-01 14:27:00,
2015-07-01 09:32:00,78.5,61.5,30.06,WSW,248,0.0,0.0,56,0.00,,---,0.00,VWS V14.01,2015-07-01 14:32:00,
2015-07-01 09:37:00,78.7,60.2,30.06,NW,315,0.0,0.0,53,0.00,,---,0.00,VWS V14.01,2015-07-01 14:37:00,
2015-07-01 09:42:00,79.1,59.4,30.06,NNW,338,0.0,0.0,51,0.00,,---,0.00,VWS V14.01,2015-07-01 14:42:00,
2015-07-01 09:47:00,79.3,58.5,30.06,WSW,248,0.0,0.0,49,0.00,,---,0.00,VWS V14.01,2015-07-01 14:47:00,
2015-07-01 09:52:00,79.6,58.2,30.06,NW,315,0.0,0.0,48,0.00,,---,0.00,VWS V14.01,2015-07-01 14:52:00,
2015-07-01 09:57:00,80.2,56.9,30.06,SW,225,0.0,0.0,45,0.00,,---,0.00,VWS V14.01,2015-07-01 14:57:00,
2015-07-01 10:02:00,80.5,57.2,30.06,SSW,202,0.0,0.0,45,0.00,,---,0.00,VWS V14.01,2015-07-01 15:02:00,
2015-07-01 10:07:00,80.7,56.8,30.06,SW,225,0.0,0.0,44,0.00,,---,0.00,VWS V14.01,2015-07-01 15:07:00,
2015-07-01 10:12:00,81.1,56.5,30.09,SSW,202,0.0,0.0,43,0.00,,---,0.00,VWS V14.01,2015-07-01 15:12:00,
2015-07-01 10:17:00,81.2,56.0,30.09,SSW,202,0.0,0.0,42,0.00,,---,0.00,VWS V14.01,2015-07-01 15:17:00,
2015-07-01 10:22:00,81.4,55.5,30.09,SSW,202,0.0,0.0,41,0.00,,---,0.00,VWS V14.01,2015-07-01 15:22:00,
2015-07-01 10:27:00,81.6,54.3,30.06,SSW,202,0.0,0.0,39,0.00,,---,0.00,VWS V14.01,2015-07-01 15:27:00,
2015-07-01 10:32:00,81.6,52.1,30.06,WNW,292,2.2,2.2,36,0.00,,---,0.00,VWS V14.01,2015-07-01 15:32:00,
2015-07-01 10:37:00,81.8,50.7,30.06,NNW,338,3.4,3.4,34,0.00,,---,0.00,VWS V14.01,2015-07-01 15:37:00,
2015-07-01 10:42:00,82.1,49.4,30.06,NNW,338,1.1,2.0,32,0.00,,---,0.00,VWS V14.01,2015-07-01 15:42:00,
2015-07-01 10:46:00,82.1,49.4,30.06,NW,315,2.7,3.4,32,0.00,,---,0.00,VWS V14.01,2015-07-01 15:46:00,
2015-07-01 10:51:00,82.1,50.2,30.06,WNW,292,0.0,0.9,33,0.00,,---,0.00,VWS V14.01,2015-07-01 15:51:00,
2015-07-01 10:56:00,82.3,50.4,30.06,SSE,158,0.0,1.1,33,0.00,,---,0.00,VWS V14.01,2015-07-01 15:56:00,
2015-07-01 11:01:00,82.5,51.3,30.06,SSE,158,0.9,1.6,34,0.00,,---,0.00,VWS V14.01,2015-07-01 16:01:00,
2015-07-01 11:06:00,82.7,50.7,30.06,SSW,202,0.0,0.0,33,0.00,,---,0.00,VWS V14.01,2015-07-01 16:06:00,
2015-07-01 11:11:00,82.9,51.7,30.06,South,180,1.1,1.3,34,0.00,,---,0.00,VWS V14.01,2015-07-01 16:11:00,
2015-07-01 11:16:00,83.0,50.2,30.06,SSE,158,2.7,2.7,32,0.00,,---,0.00,VWS V14.01,2015-07-01 16:16:00,
2015-07-01 11:21:00,83.2,50.3,30.06,South,180,3.1,3.1,32,0.00,,---,0.00,VWS V14.01,2015-07-01 16:21:00,
2015-07-01 11:26:00,83.4,50.5,30.09,SW,225,0.0,1.6,32,0.00,,---,0.00,VWS V14.01,2015-07-01 16:26:00,
2015-07-01 11:31:00,83.4,49.6,30.09,NW,315,2.5,2.5,31,0.00,,---,0.00,VWS V14.01,2015-07-01 16:31:00,
2015-07-01 11:36:00,83.6,50.6,30.09,WSW,248,0.9,0.9,32,0.00,,---,0.00,VWS V14.01,2015-07-01 16:36:00,
2015-07-01 11:41:00,83.6,49.8,30.09,WSW,248,2.7,3.1,31,0.00,,---,0.00,VWS V14.01,2015-07-01 16:41:00,
2015-07-01 11:46:00,83.8,49.9,30.09,SW,225,0.0,1.1,31,0.00,,---,0.00,VWS V14.01,2015-07-01 16:46:00,
2015-07-01 11:51:00,83.9,50.1,30.09,SSW,202,1.1,1.3,31,0.00,,---,0.00,VWS V14.01,2015-07-01 16:51:00,
2015-07-01 11:56:00,84.1,50.2,30.09,SSW,202,0.0,2.2,31,0.00,,---,0.00,VWS V14.01,2015-07-01 16:56:00,
2015-07-01 12:01:00,84.1,50.2,30.09,West,270,0.0,0.9,31,0.00,,---,0.00,VWS V14.01,2015-07-01 17:01:00,
2015-07-01 12:06:00,84.5,50.6,30.09,SSW,202,0.9,0.9,31,0.00,,---,0.00,VWS V14.01,2015-07-01 17:06:00,
2015-07-01 12:11:00,84.7,50.7,30.09,West,270,2.5,2.5,31,0.00,,---,0.00,VWS V14.01,2015-07-01 17:11:00,
2015-07-01 12:16:00,84.8,50.9,30.09,SSE,158,1.1,1.3,31,0.00,,---,0.00,VWS V14.01,2015-07-01 17:16:00,
2015-07-01 12:21:00,85.0,51.0,30.09,NNW,338,1.6,2.7,31,0.00,,---,0.00,VWS V14.01,2015-07-01 17:21:00,
2015-07-01 12:26:00,85.0,50.2,30.09,SW,225,2.0,2.7,30,0.00,,---,0.00,VWS V14.01,2015-07-01 17:26:00,
2015-07-01 12:31:00,85.2,50.3,30.09,West,270,0.0,0.0,30,0.00,,---,0.00,VWS V14.01,2015-07-01 17:31:00,
2015-07-01 12:36:00,85.4,49.5,30.09,NW,315,3.8,3.8,29,0.00,,---,0.00,VWS V14.01,2015-07-01 17:36:00,
2015-07-01 12:41:00,85.7,50.8,30.09,SSW,202,0.0,0.0,30,0.00,,---,0.00,VWS V14.01,2015-07-01 17:41:00,
2015-07-01 12:46:00,85.9,50.9,30.09,SSE,158,2.9,2.9,30,0.00,,---,0.00,VWS V14.01,2015-07-01 17:46:00,
2015-07-01 12:51:00,86.1,51.1,30.09,ESE,112,0.9,0.9,30,0.00,,---,0.00,VWS V14.01,2015-07-01 17:51:00,
2015-07-01 12:56:00,86.1,51.1,30.09,WSW,248,1.3,1.3,30,0.00,,---,0.00,VWS V14.01,2015-07-01 17:56:00,
2015-07-01 13:01:00,86.3,50.3,30.09,WSW,248,1.6,1.6,29,0.00,,---,0.00,VWS V14.01,2015-07-01 18:01:00,
2015-07-01 13:06:00,86.6,51.5,30.09,South,180,1.3,1.3,30,0.00,,---,0.00,VWS V14.01,2015-07-01 18:06:00,
2015-07-01 13:11:00,86.6,50.6,30.09,NE,45,1.1,1.1,29,0.00,,---,0.00,VWS V14.01,2015-07-01 18:11:00,
2015-07-01 13:16:00,86.8,50.8,30.09,South,180,2.7,2.7,29,0.00,,---,0.00,VWS V14.01,2015-07-01 18:16:00,
2015-07-01 13:21:00,87.0,50.9,30.09,SW,225,0.0,2.0,29,0.00,,---,0.00,VWS V14.01,2015-07-01 18:21:00,
2015-07-01 13:26:00,87.2,51.1,30.06,ENE,68,1.6,2.0,29,0.00,,---,0.00,VWS V14.01,2015-07-01 18:26:00,
2015-07-01 13:31:00,87.4,50.3,30.06,South,180,1.1,3.4,28,0.00,,---,0.00,VWS V14.01,2015-07-01 18:31:00,
2015-07-01 13:36:00,87.5,50.5,30.06,West,270,0.0,0.0,28,0.00,,---,0.00,VWS V14.01,2015-07-01 18:36:00,
2015-07-01 13:41:00,87.7,50.6,30.06,West,270,1.1,3.1,28,0.00,,---,0.00,VWS V14.01,2015-07-01 18:41:00,
2015-07-01 13:46:00,87.7,50.6,30.06,South,180,1.3,2.7,28,0.00,,---,0.00,VWS V14.01,2015-07-01 18:46:00,
2015-07-01 13:51:00,87.9,50.8,30.06,NNE,22,1.6,2.7,28,0.00,,---,0.00,VWS V14.01,2015-07-01 18:51:00,
2015-07-01 13:56:00,88.1,50.9,30.06,SSW,202,2.5,2.5,28,0.00,,---,0.00,VWS V14.01,2015-07-01 18:56:00,
2015-07-01 14:01:00,88.3,51.1,30.06,South,180,2.7,2.7,28,0.00,,---,0.00,VWS V14.01,2015-07-01 19:01:00,
2015-07-01 14:06:00,88.6,51.4,30.06,SSW,202,1.3,2.5,28,0.00,,---,0.00,VWS V14.01,2015-07-01 19:06:00,
2015-07-01 14:11:00,88.3,49.1,30.06,NNW,338,2.9,3.4,26,0.00,,---,0.00,VWS V14.01,2015-07-01 19:11:00,
2015-07-01 14:16:00,88.3,49.1,30.06,West,270,1.3,2.2,26,0.00,,---,0.00,VWS V14.01,2015-07-01 19:16:00,
2015-07-01 14:21:00,88.1,47.9,30.06,West,270,0.0,2.5,25,0.00,,---,0.00,VWS V14.01,2015-07-01 19:21:00,
2015-07-01 14:26:00,88.3,49.1,30.03,NW,315,0.0,2.0,26,0.00,,---,0.00,VWS V14.01,2015-07-01 19:26:00,
2015-07-01 14:31:00,88.3,51.1,30.03,West,270,1.3,1.6,28,0.00,,---,0.00,VWS V14.01,2015-07-01 19:31:00,
2015-07-01 14:36:00,88.6,50.4,30.03,WNW,292,2.0,3.4,27,0.00,,---,0.00,VWS V14.01,2015-07-01 19:36:00,
2015-07-01 14:41:00,88.6,50.4,30.03,West,270,1.6,2.9,27,0.00,,---,0.00,VWS V14.01,2015-07-01 19:41:00,
2015-07-01 14:46:00,88.6,49.4,30.03,SSW,202,0.9,0.9,26,0.00,,---,0.00,VWS V14.01,2015-07-01 19:46:00,
2015-07-01 14:51:00,88.8,49.5,30.03,West,270,2.0,2.9,26,0.00,,---,0.00,VWS V14.01,2015-07-01 19:51:00,
2015-07-01 14:56:00,88.8,49.5,30.03,West,270,1.1,2.7,26,0.00,,---,0.00,VWS V14.01,2015-07-01 19:56:00,
2015-07-01 15:01:00,88.8,48.5,30.03,SW,225,1.1,2.0,25,0.00,,---,0.00,VWS V14.01,2015-07-01 20:01:00,
2015-07-01 15:06:00,88.8,49.5,30.03,SSW,202,1.1,3.6,26,0.00,,---,0.00,VWS V14.01,2015-07-01 20:06:00,
2015-07-01 15:11:00,89.0,50.7,30.00,South,180,2.7,2.7,27,0.00,,---,0.00,VWS V14.01,2015-07-01 20:11:00,
2015-07-01 15:16:00,89.0,49.7,30.00,NW,315,1.6,1.6,26,0.00,,---,0.00,VWS V14.01,2015-07-01 20:16:00,
2015-07-01 15:21:00,89.0,49.7,30.00,WNW,292,2.9,3.4,26,0.00,,---,0.00,VWS V14.01,2015-07-01 20:21:00,
2015-07-01 15:26:00,88.8,49.5,30.00,SSW,202,0.0,0.0,26,0.00,,---,0.00,VWS V14.01,2015-07-01 20:26:00,
2015-07-01 15:31:00,89.0,49.7,30.00,South,180,2.9,2.9,26,0.00,,---,0.00,VWS V14.01,2015-07-01 20:31:00,
2015-07-01 15:36:00,88.4,49.2,30.00,SSW,202,0.9,1.1,26,0.00,,---,0.00,VWS V14.01,2015-07-01 20:36:00,
2015-07-01 15:41:00,88.6,50.4,30.00,SSW,202,0.0,2.2,27,0.00,,---,0.00,VWS V14.01,2015-07-01 20:41:00,
2015-07-01 15:46:00,88.6,50.4,30.00,NW,315,1.3,1.6,27,0.00,,---,0.00,VWS V14.01,2015-07-01 20:46:00,
2015-07-01 15:51:00,88.8,50.5,30.00,WNW,292,1.3,1.3,27,0.00,,---,0.00,VWS V14.01,2015-07-01 20:51:00,
2015-07-01 15:56:00,88.8,51.5,30.00,SSW,202,1.3,1.3,28,0.00,,---,0.00,VWS V14.01,2015-07-01 20:56:00,
2015-07-01 16:01:00,88.6,49.4,30.00,NNW,338,1.3,1.6,26,0.00,,---,0.00,VWS V14.01,2015-07-01 21:01:00,
2015-07-01 16:06:00,88.8,50.5,30.00,West,270,0.0,1.6,27,0.00,,---,0.00,VWS V14.01,2015-07-01 21:06:00,
2015-07-01 16:11:00,88.6,51.4,30.00,WSW,248,1.1,2.9,28,0.00,,---,0.00,VWS V14.01,2015-07-01 21:11:00,
2015-07-01 16:16:00,88.6,50.4,30.00,West,270,0.0,1.1,27,0.00,,---,0.00,VWS V14.01,2015-07-01 21:16:00,
2015-07-01 16:21:00,88.4,50.2,30.00,WSW,248,0.0,1.1,27,0.00,,---,0.00,VWS V14.01,2015-07-01 21:21:00,
2015-07-01 16:26:00,88.3,49.1,30.00,WNW,292,1.3,2.9,26,0.00,,---,0.00,VWS V14.01,2015-07-01 21:26:00,
2015-07-01 16:31:00,88.1,48.9,30.00,WNW,292,1.3,2.2,26,0.00,,---,0.00,VWS V14.01,2015-07-01 21:31:00,
2015-07-01 16:36:00,88.1,49.9,30.00,SSW,202,0.9,1.3,27,0.00,,---,0.00,VWS V14.01,2015-07-01 21:36:00,
2015-07-01 16:41:00,88.1,50.9,30.00,SSE,158,0.0,2.2,28,0.00,,---,0.00,VWS V14.01,2015-07-01 21:41:00,
2015-07-01 16:46:00,88.3,50.1,30.00,SSW,202,0.0,1.6,27,0.00,,---,0.00,VWS V14.01,2015-07-01 21:46:00,
2015-07-01 16:51:00,88.3,50.1,30.00,SSE,158,2.2,2.2,27,0.00,,---,0.00,VWS V14.01,2015-07-01 21:51:00,
2015-07-01 16:56:00,88.3,51.1,30.00,SSW,202,0.0,0.0,28,0.00,,---,0.00,VWS V14.01,2015-07-01 21:56:00,
2015-07-01 17:01:00,88.1,50.9,30.00,WNW,292,0.0,0.9,28,0.00,,---,0.00,VWS V14.01,2015-07-01 22:01:00,
2015-07-01 17:05:00,87.7,49.6,30.00,SSW,202,0.0,0.0,27,0.00,,---,0.00,VWS V14.01,2015-07-01 22:05:00,